Time;durP1;ratioP1;P1;durP2;ratioP2;P2;SDS_P1;SDS_P2;PMS_P1;PMS_P2;Temp;Humidity;BMP_temperature;BMP_pressure;BME280_temperature;BME280_humidity;BME280_pressure;Samples;Min_cycle;Max_cycle;Signal;HPM_P1;HPM_P2
2022/08/01 00:02:19;;;;;;;9.80;7.68;;;19.70;99.90;;;;;;4962432;28;20030;-79
2022/08/01 00:04:53;;;;;;;9.27;6.93;;;19.70;99.90;;;;;;4956395;28;20045;-79
2022/08/01 00:07:23;;;;;;;7.18;5.95;;;19.70;99.90;;;;;;4955555;28;20082;-78
2022/08/01 00:09:55;;;;;;;8.60;7.38;;;19.70;99.90;;;;;;4927723;28;20183;-79
2022/08/01 00:12:30;;;;;;;10.80;7.53;;;19.70;99.90;;;;;;4943665;28;20043;-78
2022/08/01 00:14:57;;;;;;;8.32;6.45;;;19.70;99.90;;;;;;4921879;28;20692;-78
2022/08/01 00:17:39;;;;;;;8.40;6.07;;;19.70;99.90;;;;;;4976586;28;20038;-78
2022/08/01 00:20:11;;;;;;;7.43;5.57;;;19.70;99.90;;;;;;4998647;28;20041;-79
2022/08/01 00:22:39;;;;;;;7.18;6.47;;;19.70;99.90;;;;;;4999496;28;20036;-78
2022/08/01 00:25:13;;;;;;;7.15;6.45;;;19.70;99.90;;;;;;4979881;28;20033;-78
2022/08/01 00:27:39;;;;;;;6.57;5.68;;;19.70;99.90;;;;;;4984001;28;20037;-77
2022/08/01 00:30:06;;;;;;;8.18;6.82;;;19.70;99.90;;;;;;4995061;28;20030;-77
2022/08/01 00:32:34;;;;;;;6.28;5.57;;;19.70;99.90;;;;;;4962578;28;20029;-77
2022/08/01 00:35:03;;;;;;;7.05;6.22;;;19.70;99.90;;;;;;4961986;28;20129;-76
2022/08/01 00:37:30;;;;;;;6.07;5.40;;;19.70;99.90;;;;;;4998347;28;20682;-77
2022/08/01 00:40:02;;;;;;;7.03;4.70;;;19.70;99.90;;;;;;5014849;28;20029;-77
2022/08/01 00:42:29;;;;;;;6.75;5.40;;;19.60;99.90;;;;;;4982177;28;20460;-77
2022/08/01 00:44:55;;;;;;;6.93;5.45;;;19.60;99.90;;;;;;4989406;28;20036;-77
2022/08/01 00:47:31;;;;;;;8.52;5.20;;;19.60;99.90;;;;;;4964784;28;20493;-77
2022/08/01 00:50:10;;;;;;;7.28;6.10;;;19.60;99.90;;;;;;4981206;28;20037;-77
2022/08/01 00:52:56;;;;;;;6.20;5.47;;;19.60;99.90;;;;;;4972312;28;20381;-77
2022/08/01 00:55:30;;;;;;;6.55;5.85;;;19.60;99.90;;;;;;4963042;28;20542;-77
2022/08/01 00:58:06;;;;;;;6.20;5.28;;;19.50;99.90;;;;;;4998409;28;20443;-77
2022/08/01 01:00:40;;;;;;;10.13;6.13;;;19.50;99.90;;;;;;5013971;28;20704;-77
2022/08/01 01:03:08;;;;;;;6.57;5.15;;;19.50;99.90;;;;;;4984626;28;20042;-78
2022/08/01 01:06:17;;;;;;;11.38;9.35;;;19.50;99.90;;;;;;4996821;28;20041;-78
2022/08/01 01:09:44;;;;;;;8.80;6.93;;;19.50;99.90;;;;;;4972656;28;20014;-77
2022/08/01 01:12:29;;;;;;;7.28;6.50;;;19.50;99.90;;;;;;4930899;28;20376;-77
2022/08/01 01:15:22;;;;;;;12.75;9.30;;;19.40;99.90;;;;;;4962004;28;20496;-77
2022/08/01 01:17:57;;;;;;;9.27;8.35;;;19.40;99.90;;;;;;4985696;28;20025;-77
2022/08/01 01:20:33;;;;;;;8.27;7.22;;;19.40;99.90;;;;;;5002162;28;20608;-77
2022/08/01 01:23:26;;;;;;;7.97;7.15;;;19.40;99.90;;;;;;4986824;28;20044;-77
2022/08/01 01:26:20;;;;;;;8.25;7.13;;;19.40;99.90;;;;;;4996658;28;20030;-77
2022/08/01 01:29:10;;;;;;;7.72;6.72;;;19.40;99.90;;;;;;5018693;28;20017;-77
2022/08/01 01:31:50;;;;;;;9.77;8.30;;;19.40;99.90;;;;;;4968464;28;20040;-77
2022/08/01 01:34:21;;;;;;;9.77;7.65;;;19.40;99.90;;;;;;4998014;28;20401;-77
2022/08/01 01:36:57;;;;;;;8.98;7.35;;;19.40;99.90;;;;;;5019146;28;20029;-78
2022/08/01 01:39:33;;;;;;;11.13;9.10;;;19.40;99.90;;;;;;4987031;28;22430;-78
2022/08/01 01:42:35;;;;;;;8.25;6.90;;;19.40;99.90;;;;;;4988441;28;20578;-78
2022/08/01 01:45:08;;;;;;;;;;;19.40;99.90;;;;;;4979245;28;20045;-77
2022/08/01 01:47:39;;;;;;;9.90;7.70;;;19.30;99.90;;;;;;4986122;28;19909;-77
2022/08/01 01:50:13;;;;;;;9.30;7.57;;;19.30;99.90;;;;;;4987290;28;21809;-77
2022/08/01 01:52:45;;;;;;;11.25;9.10;;;19.30;99.90;;;;;;5019306;28;20021;-77
2022/08/01 01:55:15;;;;;;;8.95;7.20;;;19.30;99.90;;;;;;4996155;28;20030;-77
2022/08/01 01:57:48;;;;;;;8.27;6.40;;;19.30;99.90;;;;;;4983514;28;20399;-77
2022/08/01 02:00:16;;;;;;;8.90;7.15;;;19.30;99.90;;;;;;5001834;28;20026;-77
2022/08/01 02:02:44;;;;;;;8.25;6.30;;;19.30;99.90;;;;;;5001433;28;20033;-79
2022/08/01 02:05:15;;;;;;;7.18;5.90;;;19.30;99.90;;;;;;4996685;28;20365;-84
2022/08/01 02:07:44;;;;;;;10.00;8.23;;;19.20;99.90;;;;;;4987533;28;20029;-83
2022/08/01 02:10:12;;;;;;;8.27;5.97;;;19.20;99.90;;;;;;4986077;28;20021;-81
2022/08/01 02:12:44;;;;;;;8.57;6.15;;;19.30;99.90;;;;;;5002545;28;20037;-79
2022/08/01 02:15:17;;;;;;;8.60;6.40;;;19.20;99.90;;;;;;4978881;28;20044;-80
2022/08/01 02:17:49;;;;;;;9.30;7.55;;;19.20;99.90;;;;;;4966520;28;20034;-79
2022/08/01 02:20:16;;;;;;;8.20;6.68;;;19.20;99.90;;;;;;4999645;28;20025;-80
2022/08/01 02:22:49;;;;;;;8.80;6.18;;;19.20;99.90;;;;;;4968704;28;20144;-79
2022/08/01 02:25:29;;;;;;;8.38;5.95;;;19.20;99.90;;;;;;4965185;28;20038;-80
2022/08/01 02:28:16;;;;;;;7.55;5.93;;;19.20;99.90;;;;;;4969809;28;20017;-80
2022/08/01 02:30:47;;;;;;;7.57;5.63;;;19.10;99.90;;;;;;4969243;28;20037;-79
2022/08/01 02:33:37;;;;;;;6.07;5.00;;;19.10;99.90;;;;;;4999835;28;20421;-80
2022/08/01 02:36:11;;;;;;;8.25;6.05;;;19.10;99.90;;;;;;4991770;28;20042;-80
2022/08/01 02:38:42;;;;;;;8.07;6.13;;;19.10;99.90;;;;;;5019148;28;20071;-81
2022/08/01 02:41:13;;;;;;;8.67;6.33;;;19.10;99.90;;;;;;4984604;28;20033;-80
2022/08/01 02:43:47;;;;;;;11.23;8.07;;;19.10;99.90;;;;;;5019982;28;20029;-80
2022/08/01 02:46:22;;;;;;;7.60;4.97;;;19.10;99.90;;;;;;4999028;28;20144;-79
2022/08/01 02:48:52;;;;;;;7.45;5.80;;;19.00;99.90;;;;;;5020031;28;20021;-80
2022/08/01 02:51:22;;;;;;;6.13;4.70;;;19.00;99.90;;;;;;5022527;28;20377;-81
2022/08/01 02:53:53;;;;;;;6.38;4.65;;;19.00;99.90;;;;;;5004983;28;20713;-80
2022/08/01 02:56:34;;;;;;;5.88;4.38;;;19.00;99.90;;;;;;4973236;28;20021;-80
2022/08/01 02:59:24;;;;;;;5.43;4.00;;;19.00;99.90;;;;;;4985218;28;20466;-79
2022/08/01 03:01:56;;;;;;;5.47;3.60;;;18.90;99.90;;;;;;5000069;28;20037;-80
2022/08/01 03:04:27;;;;;;;4.28;2.92;;;18.90;99.90;;;;;;4967960;28;20057;-80
2022/08/01 03:07:00;;;;;;;7.57;5.38;;;18.80;99.90;;;;;;4951023;28;20030;-80
2022/08/01 03:09:32;;;;;;;4.43;3.45;;;18.80;99.90;;;;;;4987200;28;20037;-81
2022/08/01 03:12:13;;;;;;;5.78;4.40;;;18.70;99.90;;;;;;5002385;28;20049;-80
2022/08/01 03:15:10;;;;;;;5.35;4.13;;;18.70;99.90;;;;;;4950489;28;20050;-81
2022/08/01 03:18:04;;;;;;;3.95;3.50;;;18.70;99.90;;;;;;4989874;28;20053;-81
2022/08/01 03:21:08;;;;;;;4.15;2.80;;;18.70;99.90;;;;;;5000514;28;20077;-80
2022/08/01 03:23:38;;;;;;;3.05;2.40;;;18.70;99.90;;;;;;4984339;28;20422;-80
2022/08/01 03:26:22;;;;;;;2.92;2.42;;;18.60;99.90;;;;;;4984479;28;20879;-81
2022/08/01 03:28:50;;;;;;;1.92;1.23;;;18.60;99.90;;;;;;4983624;28;20589;-80
2022/08/01 03:31:18;;;;;;;2.35;1.35;;;18.60;99.90;;;;;;4985151;28;20057;-80
2022/08/01 03:33:54;;;;;;;2.05;1.30;;;18.60;99.90;;;;;;4984466;28;20374;-80
2022/08/01 03:36:32;;;;;;;2.97;0.95;;;18.60;99.90;;;;;;4995239;28;20044;-80
2022/08/01 03:39:03;;;;;;;2.45;1.27;;;18.60;99.90;;;;;;4986078;28;20018;-80
2022/08/01 03:41:44;;;;;;;2.65;1.20;;;18.60;99.90;;;;;;5002931;28;20380;-80
2022/08/01 03:44:18;;;;;;;2.28;1.10;;;18.60;99.90;;;;;;4983056;28;20060;-80
2022/08/01 03:47:02;;;;;;;1.70;0.82;;;18.60;99.90;;;;;;4984171;28;20038;-80
2022/08/01 03:49:34;;;;;;;1.63;1.10;;;18.60;99.90;;;;;;5000993;28;20098;-80
2022/08/01 03:52:06;;;;;;;1.20;0.68;;;18.60;99.90;;;;;;5001911;28;20038;-80
2022/08/01 03:54:46;;;;;;;1.50;1.00;;;18.60;99.90;;;;;;4979869;28;20065;-80
2022/08/01 03:57:17;;;;;;;1.13;0.70;;;18.50;99.90;;;;;;5009167;28;20068;-80
2022/08/01 03:59:48;;;;;;;1.77;0.80;;;18.50;99.90;;;;;;4994411;28;20033;-80
2022/08/01 04:02:15;;;;;;;1.60;0.80;;;18.50;99.90;;;;;;5007726;28;20024;-80
2022/08/01 04:04:43;;;;;;;1.55;1.02;;;18.50;99.90;;;;;;4967107;28;20037;-80
2022/08/01 04:07:28;;;;;;;1.80;0.77;;;18.50;99.90;;;;;;5003736;28;20045;-80
2022/08/01 04:09:54;;;;;;;1.52;0.88;;;18.50;99.90;;;;;;4971961;28;20048;-81
2022/08/01 04:12:21;;;;;;;1.60;1.00;;;18.50;99.90;;;;;;4971362;28;20591;-80
2022/08/01 04:14:48;;;;;;;2.65;1.13;;;18.50;99.90;;;;;;4984332;28;20048;-80
2022/08/01 04:17:16;;;;;;;2.15;1.20;;;18.40;99.90;;;;;;4988054;28;20045;-80
2022/08/01 04:19:43;;;;;;;1.40;0.90;;;18.40;99.90;;;;;;4960662;28;20034;-80
2022/08/01 04:22:12;;;;;;;2.72;1.27;;;18.30;99.90;;;;;;4955891;28;20048;-80
2022/08/01 04:24:40;;;;;;;2.00;1.40;;;18.30;99.90;;;;;;4984459;28;20022;-80
2022/08/01 04:27:13;;;;;;;2.40;1.42;;;18.30;99.90;;;;;;4987514;28;20037;-80
2022/08/01 04:29:41;;;;;;;2.70;1.55;;;18.30;99.90;;;;;;5021791;28;20026;-80
2022/08/01 04:32:11;;;;;;;2.45;1.70;;;18.30;99.90;;;;;;4972155;28;20050;-80
2022/08/01 04:34:40;;;;;;;2.60;1.90;;;18.40;99.90;;;;;;4983698;28;20044;-80
2022/08/01 04:37:10;;;;;;;2.20;1.30;;;18.40;99.90;;;;;;5003955;28;20480;-80
2022/08/01 04:39:39;;;;;;;3.15;2.60;;;18.50;99.90;;;;;;4970847;28;20042;-80
2022/08/01 04:42:06;;;;;;;2.60;1.90;;;18.60;99.90;;;;;;5004663;28;20049;-80
2022/08/01 04:44:33;;;;;;;4.40;2.50;;;18.60;99.90;;;;;;4999623;28;21138;-80
2022/08/01 04:47:02;;;;;;;3.40;2.72;;;18.70;99.90;;;;;;4986687;28;20049;-80
2022/08/01 04:49:42;;;;;;;3.03;2.40;;;18.80;99.90;;;;;;4977157;28;20049;-80
2022/08/01 04:52:13;;;;;;;3.88;2.00;;;18.80;99.90;;;;;;5020568;28;20037;-80
2022/08/01 04:54:49;;;;;;;3.67;3.20;;;18.90;99.90;;;;;;4983218;28;20037;-80
2022/08/01 04:57:15;;;;;;;4.30;3.30;;;18.90;99.90;;;;;;4991664;28;20160;-80
2022/08/01 04:59:46;;;;;;;3.25;2.25;;;19.00;99.90;;;;;;4992833;28;20045;-80
2022/08/01 05:02:16;;;;;;;3.45;2.85;;;19.00;99.90;;;;;;5021657;28;20042;-80
2022/08/01 05:04:44;;;;;;;3.30;2.63;;;19.10;99.90;;;;;;4999331;28;20037;-80
2022/08/01 05:07:13;;;;;;;2.65;1.85;;;19.10;99.90;;;;;;5018334;28;20034;-80
2022/08/01 05:09:47;;;;;;;3.88;2.40;;;19.20;99.90;;;;;;4970585;28;20497;-80
2022/08/01 05:12:15;;;;;;;3.85;2.90;;;19.10;99.90;;;;;;4990694;28;20030;-80
2022/08/01 05:14:44;;;;;;;4.15;2.47;;;19.20;99.90;;;;;;5017295;28;20034;-80
2022/08/01 05:17:13;;;;;;;3.08;2.47;;;19.20;99.90;;;;;;5000752;28;20037;-80
2022/08/01 05:20:23;;;;;;;3.75;2.60;;;19.20;99.90;;;;;;5019305;28;20049;-80
2022/08/01 05:22:49;;;;;;;3.38;2.63;;;19.20;99.90;;;;;;5002712;28;20045;-80
2022/08/01 05:25:16;;;;;;;3.05;2.50;;;19.20;99.90;;;;;;4997961;28;20034;-80
2022/08/01 05:27:44;;;;;;;4.45;2.88;;;19.30;99.90;;;;;;4987117;28;20029;-80
2022/08/01 05:30:11;;;;;;;4.43;3.20;;;19.30;99.90;;;;;;5021353;28;20032;-80
2022/08/01 05:32:41;;;;;;;4.25;2.95;;;19.30;99.90;;;;;;4970913;28;20052;-80
2022/08/01 05:35:11;;;;;;;4.80;2.97;;;19.40;99.90;;;;;;5016618;28;20464;-80
2022/08/01 05:37:40;;;;;;;3.25;2.58;;;19.40;99.90;;;;;;5019299;28;20045;-80
2022/08/01 05:40:07;;;;;;;4.97;3.00;;;19.40;99.90;;;;;;5021824;28;20030;-80
2022/08/01 05:42:34;;;;;;;3.60;2.92;;;19.50;99.90;;;;;;4970601;28;20048;-79
2022/08/01 05:45:07;;;;;;;4.85;2.78;;;19.40;99.90;;;;;;4981059;28;20052;-80
2022/08/01 05:47:35;;;;;;;3.22;2.28;;;19.40;99.90;;;;;;5001464;28;20030;-79
2022/08/01 05:50:02;;;;;;;2.97;2.67;;;19.50;99.90;;;;;;4969969;28;20038;-80
2022/08/01 05:52:28;;;;;;;5.05;3.65;;;19.50;99.90;;;;;;4990566;28;20025;-80
2022/08/01 05:54:55;;;;;;;5.10;4.07;;;19.50;99.90;;;;;;4968673;28;20488;-80
2022/08/01 05:57:21;;;;;;;3.30;2.80;;;19.40;99.90;;;;;;4968294;28;20144;-80
2022/08/01 05:59:48;;;;;;;2.08;1.55;;;19.30;99.90;;;;;;4970925;28;20029;-80
2022/08/01 06:02:14;;;;;;;2.10;1.40;;;19.30;99.90;;;;;;4971755;28;21163;-80
2022/08/01 06:04:41;;;;;;;3.15;2.08;;;19.30;99.90;;;;;;4968739;28;20497;-80
2022/08/01 06:07:07;;;;;;;4.13;2.55;;;19.30;99.90;;;;;;4970523;28;20033;-80
2022/08/01 06:09:34;;;;;;;2.58;2.05;;;19.40;99.90;;;;;;4986962;28;20523;-80
2022/08/01 06:12:00;;;;;;;1.67;1.10;;;19.50;99.90;;;;;;4954917;28;20046;-80
2022/08/01 06:14:26;;;;;;;1.98;1.17;;;19.50;99.90;;;;;;5020023;28;20444;-80
2022/08/01 06:16:53;;;;;;;1.98;1.20;;;19.70;99.90;;;;;;4988017;28;20049;-80
2022/08/01 06:19:19;;;;;;;1.38;0.80;;;19.70;99.90;;;;;;4990462;28;20504;-80
2022/08/01 06:21:46;;;;;;;1.58;0.63;;;19.80;99.90;;;;;;4988785;28;20037;-80
2022/08/01 06:24:12;;;;;;;0.90;0.50;;;19.80;99.90;;;;;;4942445;28;21239;-80
2022/08/01 06:26:39;;;;;;;0.68;0.40;;;19.70;99.90;;;;;;4972280;28;20496;-81
2022/08/01 06:29:05;;;;;;;0.95;0.40;;;19.70;99.90;;;;;;4989814;28;20044;-80
2022/08/01 06:31:32;;;;;;;1.25;0.60;;;19.70;99.90;;;;;;5006275;28;20056;-80
2022/08/01 06:33:58;;;;;;;1.25;0.50;;;19.70;99.90;;;;;;4991240;28;20037;-80
2022/08/01 06:36:25;;;;;;;1.02;0.50;;;19.70;99.90;;;;;;4987986;28;20037;-80
2022/08/01 06:38:51;;;;;;;1.00;0.40;;;19.70;99.90;;;;;;4972303;28;20155;-80
2022/08/01 06:41:18;;;;;;;0.98;0.40;;;19.80;99.90;;;;;;4973042;28;20041;-80
2022/08/01 06:43:44;;;;;;;1.33;0.40;;;19.80;99.90;;;;;;4974824;28;20037;-80
2022/08/01 06:46:11;;;;;;;2.05;0.45;;;19.90;99.90;;;;;;4984573;28;20044;-80
2022/08/01 06:48:39;;;;;;;0.80;0.40;;;20.00;99.90;;;;;;4986407;28;20025;-80
2022/08/01 06:51:19;;;;;;;0.60;0.40;;;20.10;99.90;;;;;;4973230;28;20048;-79
2022/08/01 06:53:46;;;;;;;1.38;0.50;;;20.20;99.90;;;;;;5002801;28;20067;-79
2022/08/01 06:56:13;;;;;;;1.40;0.60;;;20.30;99.90;;;;;;4985404;28;20096;-80
2022/08/01 06:58:42;;;;;;;2.13;0.50;;;20.40;99.90;;;;;;5004072;28;20076;-80
2022/08/01 07:01:13;;;;;;;0.73;0.50;;;20.40;99.90;;;;;;5020826;28;20129;-79
2022/08/01 07:03:39;;;;;;;0.70;0.45;;;20.50;99.90;;;;;;4986804;28;20041;-79
2022/08/01 07:06:05;;;;;;;0.85;0.38;;;20.40;99.90;;;;;;4999333;28;20029;-80
2022/08/01 07:08:35;;;;;;;1.05;0.40;;;20.50;99.90;;;;;;4971818;28;20499;-79
2022/08/01 07:11:04;;;;;;;1.42;0.50;;;20.50;99.90;;;;;;4987305;28;20038;-80
2022/08/01 07:13:33;;;;;;;1.52;0.50;;;20.60;99.90;;;;;;5022676;28;20365;-83
2022/08/01 07:15:59;;;;;;;1.70;0.55;;;20.60;99.90;;;;;;4986407;28;20113;-83
2022/08/01 07:18:26;;;;;;;1.15;0.60;;;20.60;99.90;;;;;;5005207;28;20038;-81
2022/08/01 07:20:53;;;;;;;1.52;0.70;;;20.70;99.90;;;;;;4973322;28;20420;-84
2022/08/01 07:23:20;;;;;;;3.10;2.53;;;20.80;99.90;;;;;;5005316;28;20037;-82
2022/08/01 07:25:52;;;;;;;3.67;1.65;;;20.80;99.90;;;;;;4985249;28;20424;-82
2022/08/01 07:28:20;;;;;;;3.35;2.17;;;20.90;99.90;;;;;;5007620;28;20026;-82
2022/08/01 07:30:58;;;;;;;1.98;1.20;;;20.90;99.90;;;;;;4990809;28;20048;-82
2022/08/01 07:33:31;;;;;;;1.67;0.60;;;20.90;99.90;;;;;;4971270;28;20033;-83
2022/08/01 07:36:00;;;;;;;1.77;1.08;;;20.90;99.90;;;;;;4969335;28;20050;-82
2022/08/01 07:38:34;;;;;;;1.38;0.77;;;20.80;99.90;;;;;;4992084;28;20041;-82
2022/08/01 07:41:02;;;;;;;2.42;1.23;;;20.80;99.90;;;;;;5005404;28;20496;-82
2022/08/01 07:43:29;;;;;;;1.63;0.80;;;20.80;99.90;;;;;;4979769;28;20037;-84
2022/08/01 07:45:56;;;;;;;2.20;0.90;;;20.80;99.90;;;;;;4989080;28;20044;-88
2022/08/01 07:48:25;;;;;;;1.15;0.50;;;20.80;99.90;;;;;;4995398;28;20042;-88
2022/08/01 07:50:52;;;;;;;0.98;0.50;;;20.90;99.90;;;;;;4993209;28;20384;-85
2022/08/01 07:53:18;;;;;;;1.45;0.52;;;21.00;99.90;;;;;;4992193;28;20077;-88
2022/08/01 07:55:45;;;;;;;2.65;1.10;;;21.10;99.90;;;;;;4987413;28;20056;-88
2022/08/01 07:58:12;;;;;;;1.40;0.60;;;21.10;99.90;;;;;;4980029;28;20049;-87
2022/08/01 08:00:40;;;;;;;1.50;0.70;;;21.10;99.90;;;;;;4977610;28;20087;-87
2022/08/01 08:03:06;;;;;;;4.82;1.00;;;21.10;99.90;;;;;;4992444;28;20044;-87
2022/08/01 08:05:36;;;;;;;2.13;0.70;;;21.10;99.90;;;;;;4964630;28;21013;-88
2022/08/01 08:08:05;;;;;;;3.17;1.58;;;21.10;99.90;;;;;;4996201;28;20413;-88
2022/08/01 08:10:32;;;;;;;2.33;1.00;;;21.00;99.90;;;;;;4993323;28;20557;-89
2022/08/01 08:13:00;;;;;;;2.72;0.90;;;20.90;99.90;;;;;;4961620;28;20480;-89
2022/08/01 08:15:27;;;;;;;1.30;0.50;;;20.90;99.90;;;;;;4974090;28;20034;-89
2022/08/01 08:17:54;;;;;;;1.52;0.60;;;20.90;99.90;;;;;;4981722;28;20423;-87
2022/08/01 08:20:24;;;;;;;1.10;0.55;;;20.90;99.90;;;;;;4996751;28;20044;-89
2022/08/01 08:22:51;;;;;;;1.00;0.50;;;21.00;99.90;;;;;;4982121;28;20038;-88
2022/08/01 08:25:27;;;;;;;0.98;0.50;;;21.10;99.90;;;;;;5011735;28;20041;-89
2022/08/01 08:27:53;;;;;;;1.83;0.50;;;21.10;99.90;;;;;;4992312;28;20030;-86
2022/08/01 08:30:20;;;;;;;2.90;0.70;;;21.00;99.90;;;;;;4965396;28;20048;-87
2022/08/01 08:32:47;;;;;;;1.73;0.60;;;21.00;99.90;;;;;;5024125;28;20029;-86
2022/08/01 08:35:13;;;;;;;2.47;0.80;;;21.10;99.90;;;;;;4986351;28;20273;-84
2022/08/01 08:37:40;;;;;;;2.17;0.90;;;21.10;99.90;;;;;;4986599;28;20432;-82
2022/08/01 08:40:07;;;;;;;2.15;0.70;;;21.20;99.90;;;;;;4972279;28;20034;-83
2022/08/01 08:42:34;;;;;;;1.85;0.70;;;21.40;99.90;;;;;;4988345;28;20049;-84
2022/08/01 08:45:00;;;;;;;2.83;0.88;;;21.50;99.90;;;;;;4969845;28;20037;-86
2022/08/01 08:47:31;;;;;;;1.58;1.00;;;21.60;99.90;;;;;;4971625;28;20044;-84
2022/08/01 08:50:46;;;;;;;2.15;0.80;;;21.70;99.90;;;;;;5020083;28;20024;-84
2022/08/01 08:54:02;;;;;;;1.17;0.70;;;21.80;99.90;;;;;;4998443;28;20045;-89
2022/08/01 08:57:10;;;;;;;1.70;0.73;;;21.50;99.90;;;;;;4951553;28;20056;-87
2022/08/01 09:00:38;;;;;;;2.72;0.80;;;21.30;99.90;;;;;;4982403;28;20060;-86
2022/08/01 09:04:18;;;;;;;2.30;1.25;;;21.10;99.90;;;;;;4987505;28;20042;-85
2022/08/01 09:10:16;;;;;;;2.05;0.90;;;20.60;99.90;;;;;;4922355;28;19914;-85
2022/08/01 09:13:21;;;;;;;2.08;0.60;;;20.20;99.90;;;;;;5002372;28;20040;-84
2022/08/01 09:15:53;;;;;;;1.60;0.60;;;19.90;99.90;;;;;;4986319;28;20045;-86
2022/08/01 09:18:53;;;;;;;1.85;0.80;;;19.80;99.90;;;;;;5002318;28;20407;-84
2022/08/01 09:21:25;;;;;;;2.38;1.00;;;19.70;99.90;;;;;;4976065;28;20415;-84
2022/08/01 09:23:54;;;;;;;3.10;0.90;;;19.70;99.90;;;;;;4983391;28;20060;-82
2022/08/01 09:26:35;;;;;;;2.38;0.77;;;19.60;99.90;;;;;;4969189;28;20490;-81
2022/08/01 09:29:26;;;;;;;3.47;2.53;;;19.70;99.90;;;;;;5005633;28;20021;-82
2022/08/01 09:31:53;;;;;;;3.92;1.92;;;19.70;99.90;;;;;;4967356;28;20444;-81
2022/08/01 09:34:28;;;;;;;5.93;2.55;;;19.80;99.90;;;;;;4992413;28;20198;-82
2022/08/01 09:37:17;;;;;;;4.38;2.40;;;19.80;99.90;;;;;;4946219;28;20042;-82
2022/08/01 09:40:01;;;;;;;3.50;1.63;;;19.80;99.90;;;;;;4944308;28;20685;-83
2022/08/01 09:42:40;;;;;;;4.63;1.65;;;19.70;99.90;;;;;;4968569;28;20077;-83
2022/08/01 09:45:09;;;;;;;2.58;1.05;;;19.80;99.90;;;;;;4947415;28;20501;-82
2022/08/01 09:47:51;;;;;;;4.55;1.30;;;19.80;99.90;;;;;;4997409;28;20053;-84
2022/08/01 09:50:18;;;;;;;4.88;1.30;;;19.80;99.90;;;;;;4934386;28;20042;-84
2022/08/01 09:52:53;;;;;;;4.57;1.40;;;19.90;99.90;;;;;;4946717;28;20954;-83
2022/08/01 09:55:24;;;;;;;3.33;1.17;;;20.00;99.90;;;;;;4975940;28;20050;-85
2022/08/01 09:58:00;;;;;;;5.43;1.80;;;20.10;99.90;;;;;;4947192;28;20038;-84
2022/08/01 10:00:27;;;;;;;7.90;2.45;;;20.20;99.90;;;;;;4950800;28;20065;-88
2022/08/01 10:03:17;;;;;;;7.53;3.85;;;20.20;99.90;;;;;;4969946;28;20045;-84
2022/08/01 10:06:27;;;;;;;12.55;4.00;;;20.20;99.90;;;;;;4972532;28;20037;-90
2022/08/01 10:09:17;;;;;;;;;;;;;;;;;;;;;
2022/08/01 10:11:47;;;;;;;8.75;3.55;;;20.40;99.90;;;;;;4987518;28;20038;-90
2022/08/01 10:14:14;;;;;;;5.82;2.50;;;20.60;99.90;;;;;;4988058;28;20053;-88
2022/08/01 10:17:05;;;;;;;10.63;4.32;;;20.80;99.90;;;;;;4976048;28;20030;-91
2022/08/01 10:19:37;;;;;;;8.10;2.55;;;21.00;99.90;;;;;;4988012;28;20040;-90
2022/08/01 10:22:09;;;;;;;7.63;3.08;;;21.10;99.90;;;;;;4986746;28;20037;-88
2022/08/01 10:24:43;;;;;;;5.22;2.00;;;21.10;99.90;;;;;;4982515;28;20041;-89
2022/08/01 10:27:19;;;;;;;4.40;1.50;;;21.10;99.90;;;;;;4987263;28;20053;-89
2022/08/01 10:30:17;;;;;;;4.55;2.00;;;21.10;99.90;;;;;;4973380;28;20286;-89
2022/08/01 10:32:47;;;;;;;6.85;1.70;;;21.00;99.90;;;;;;4993959;28;20037;-89
2022/08/01 10:35:17;;;;;;;5.25;1.55;;;20.90;99.90;;;;;;4987647;28;20042;-90
2022/08/01 10:37:57;;;;;;;6.03;1.60;;;20.90;99.90;;;;;;5006026;28;20033;-86
2022/08/01 10:40:42;;;;;;;6.15;1.30;;;21.00;99.90;;;;;;4976157;28;20037;-86
2022/08/01 10:43:22;;;;;;;4.63;1.60;;;21.10;99.90;;;;;;4987545;28;20045;-85
2022/08/01 10:45:50;;;;;;;3.38;1.30;;;21.10;99.90;;;;;;4968721;28;20042;-85
2022/08/01 10:48:35;;;;;;;5.18;1.60;;;21.00;99.90;;;;;;4988238;28;20386;-85
2022/08/01 10:56:40;;;;;;;;;;;;;;;;;;;;;
2022/08/01 10:59:39;;;;;;;5.95;1.45;;;20.80;99.90;;;;;;4966117;28;20144;-85
2022/08/01 11:02:48;;;;;;;5.90;1.63;;;20.80;99.90;;;;;;5008468;28;20041;-86
2022/08/01 11:06:26;;;;;;;4.45;1.10;;;21.10;99.90;;;;;;4992121;28;20042;-86
2022/08/01 11:09:52;;;;;;;6.47;1.63;;;21.40;99.90;;;;;;4949355;28;20030;-85
2022/08/01 11:12:43;;;;;;;5.13;1.40;;;21.80;99.90;;;;;;4969130;28;20042;-84
2022/08/01 11:15:30;;;;;;;6.07;1.70;;;22.10;99.90;;;;;;4961799;28;20057;-84
2022/08/01 11:18:53;;;;;;;6.75;1.65;;;22.20;99.90;;;;;;4968124;28;20054;-83
2022/08/01 11:22:02;;;;;;;3.67;1.58;;;22.40;99.90;;;;;;4981395;28;20049;-84
2022/08/01 11:24:53;;;;;;;6.70;1.50;;;22.50;99.90;;;;;;4961922;28;20054;-86
2022/08/01 11:27:32;;;;;;;6.53;1.63;;;22.50;99.90;;;;;;4980971;28;20089;-86
2022/08/01 11:30:22;;;;;;;6.78;2.10;;;22.50;99.90;;;;;;4969828;28;20042;-84
2022/08/01 11:33:13;;;;;;;6.18;1.77;;;22.70;99.90;;;;;;4972180;28;20056;-84
2022/08/01 11:40:18;;;;;;;7.97;1.48;;;22.80;99.90;;;;;;4971381;28;20138;-85
2022/08/01 11:43:11;;;;;;;5.22;1.42;;;22.90;99.90;;;;;;5000708;28;20072;-86
2022/08/01 11:45:56;;;;;;;3.45;1.20;;;23.10;99.90;;;;;;4994590;28;20044;-86
2022/08/01 11:48:27;;;;;;;4.22;1.13;;;23.30;99.90;;;;;;4984274;28;20038;-85
2022/08/01 11:50:57;;;;;;;6.35;1.27;;;23.40;99.90;;;;;;5001574;28;20030;-83
2022/08/01 11:54:06;;;;;;;3.72;0.93;;;23.30;99.90;;;;;;5004338;28;20045;-86
2022/08/01 11:57:29;;;;;;;5.78;1.38;;;23.40;99.90;;;;;;4980914;28;20045;-85
2022/08/01 12:00:16;;;;;;;6.55;1.08;;;23.60;99.90;;;;;;4979853;28;20274;-85
2022/08/01 12:02:45;;;;;;;6.38;1.15;;;23.80;99.90;;;;;;4966921;28;20520;-85
2022/08/01 12:05:17;;;;;;;6.72;0.80;;;23.80;99.90;;;;;;4961490;28;20057;-85
2022/08/01 12:08:13;;;;;;;4.50;0.70;;;23.80;99.90;;;;;;4967736;28;20065;-87
2022/08/01 12:10:41;;;;;;;4.03;0.88;;;23.80;99.90;;;;;;4970828;28;20061;-85
2022/08/01 12:13:50;;;;;;;5.68;1.02;;;23.70;99.90;;;;;;4983575;28;20048;-87
2022/08/01 12:17:02;;;;;;;6.45;1.02;;;23.70;99.90;;;;;;4971037;28;20054;-85
2022/08/01 12:19:41;;;;;;;4.90;0.80;;;23.80;99.90;;;;;;4987811;28;20045;-85
2022/08/01 12:22:33;;;;;;;5.78;1.02;;;23.80;99.90;;;;;;4973439;28;20398;-85
2022/08/01 12:25:12;;;;;;;2.72;0.60;;;23.70;99.90;;;;;;4953836;28;20617;-86
2022/08/01 12:27:47;;;;;;;3.65;0.70;;;23.60;99.90;;;;;;4966074;28;20390;-87
2022/08/01 12:30:19;;;;;;;4.25;1.02;;;23.60;99.90;;;;;;4961669;28;20053;-87
2022/08/01 12:32:47;;;;;;;3.42;0.90;;;23.70;99.90;;;;;;4957371;28;20046;-86
2022/08/01 12:35:28;;;;;;;6.45;1.00;;;23.90;99.90;;;;;;4952472;28;20091;-87
2022/08/01 12:38:02;;;;;;;6.07;1.02;;;24.00;99.90;;;;;;4955563;28;20496;-86
2022/08/01 12:40:32;;;;;;;3.75;0.95;;;24.10;99.90;;;;;;4954399;28;20154;-81
2022/08/01 12:43:06;;;;;;;4.20;1.52;;;24.20;99.90;;;;;;4941477;28;20031;-82
2022/08/01 12:45:44;;;;;;;6.35;1.10;;;24.10;99.90;;;;;;4950770;28;21244;-82
2022/08/01 12:48:13;;;;;;;4.18;0.70;;;24.10;99.90;;;;;;4949853;28;20497;-82
2022/08/01 12:50:57;;;;;;;5.05;0.70;;;24.00;99.90;;;;;;4976101;28;20141;-83
2022/08/01 12:53:37;;;;;;;4.07;0.80;;;23.90;99.90;;;;;;4944929;28;20525;-81
2022/08/01 12:56:12;;;;;;;5.18;0.73;;;23.90;99.90;;;;;;4946961;28;20049;-86
2022/08/01 12:58:51;;;;;;;3.13;0.52;;;23.80;99.90;;;;;;4996288;28;20045;-86
2022/08/01 13:01:41;;;;;;;5.70;0.93;;;23.80;99.90;;;;;;4995892;28;20037;-86
2022/08/01 13:04:26;;;;;;;4.32;0.80;;;23.70;99.90;;;;;;4971662;28;20072;-88
2022/08/01 13:08:16;;;;;;;;;;;;;;;;;;;;;
2022/08/01 13:11:42;;;;;;;5.40;0.90;;;23.60;99.90;;;;;;5009946;28;20033;-87
2022/08/01 13:15:25;;;;;;;2.72;0.60;;;23.60;99.90;;;;;;4999295;28;20049;-84
2022/08/01 13:19:24;;;;;;;3.80;0.60;;;23.60;99.90;;;;;;4895992;29;20048;-85
2022/08/01 13:22:31;;;;;;;;;;;;;;;;;;;;;
2022/08/01 13:31:21;;;;;;;4.20;0.80;;;24.10;99.90;;;;;;4919549;29;20039;-87
2022/08/01 13:35:01;;;;;;;4.10;0.70;;;24.20;99.90;;;;;;4894514;29;20042;-83
2022/08/01 13:41:50;;;;;;;11.07;0.90;;;25.70;99.90;;;;;;4952245;28;20210;-82
2022/08/01 13:49:26;;;;;;;4.82;0.70;;;27.40;97.80;;;;;;4984729;28;20041;-85
2022/08/01 13:51:53;;;;;;;4.28;0.80;;;27.50;96.50;;;;;;4975064;28;20038;-81
2022/08/01 13:54:23;;;;;;;2.75;0.60;;;27.30;96.70;;;;;;4986596;28;20674;-82
2022/08/01 13:56:53;;;;;;;4.82;1.00;;;27.30;96.10;;;;;;4992710;28;20030;-81
2022/08/01 13:59:23;;;;;;;5.07;0.70;;;27.20;95.90;;;;;;4992745;28;20057;-80
2022/08/01 14:01:55;;;;;;;3.70;0.90;;;27.70;95.30;;;;;;4964174;28;20132;-80
2022/08/01 14:04:22;;;;;;;6.15;1.05;;;29.50;93.20;;;;;;4986090;28;20080;-81
2022/08/01 14:06:54;;;;;;;3.35;0.70;;;30.20;91.10;;;;;;4993018;28;20026;-81
2022/08/01 14:09:23;;;;;;;5.10;1.13;;;30.40;90.00;;;;;;4980959;28;20036;-82
2022/08/01 14:11:53;;;;;;;4.35;0.77;;;30.40;88.10;;;;;;4990020;28;20029;-82